sensor_id;sensor_type;location;lat;lon;timestamp;P1;durP1;ratioP1;P2;durP2;ratioP2
68744;SDS011;66104;45.456;11.064;2022-12-20T00:00:22;38.80;;;25.00;;
68744;SDS011;66104;45.456;11.064;2022-12-20T00:02:59;38.90;;;24.60;;
68744;SDS011;66104;45.456;11.064;2022-12-20T00:05:40;42.20;;;24.40;;
68744;SDS011;66104;45.456;11.064;2022-12-20T00:08:16;40.20;;;23.70;;
68744;SDS011;66104;45.456;11.064;2022-12-20T00:10:53;39.20;;;23.80;;
68744;SDS011;66104;45.456;11.064;2022-12-20T00:13:33;52.00;;;30.20;;
68744;SDS011;66104;45.456;11.064;2022-12-20T00:16:13;48.50;;;29.00;;
68744;SDS011;66104;45.456;11.064;2022-12-20T00:18:55;43.60;;;26.80;;
68744;SDS011;66104;45.456;11.064;2022-12-20T00:21:33;38.70;;;25.20;;
68744;SDS011;66104;45.456;11.064;2022-12-20T00:24:10;35.50;;;23.90;;
68744;SDS011;66104;45.456;11.064;2022-12-20T00:26:56;36.60;;;24.00;;
68744;SDS011;66104;45.456;11.064;2022-12-20T00:29:32;43.10;;;25.10;;
68744;SDS011;66104;45.456;11.064;2022-12-20T00:32:10;36.30;;;22.30;;
68744;SDS011;66104;45.456;11.064;2022-12-20T00:34:45;36.90;;;23.10;;
68744;SDS011;66104;45.456;11.064;2022-12-20T00:37:22;48.90;;;29.10;;
68744;SDS011;66104;45.456;11.064;2022-12-20T00:39:59;44.00;;;27.60;;
68744;SDS011;66104;45.456;11.064;2022-12-20T00:42:35;44.00;;;26.60;;
68744;SDS011;66104;45.456;11.064;2022-12-20T00:45:14;42.80;;;25.60;;
68744;SDS011;66104;45.456;11.064;2022-12-20T00:47:51;42.80;;;26.90;;
68744;SDS011;66104;45.456;11.064;2022-12-20T00:50:28;39.20;;;25.20;;
68744;SDS011;66104;45.456;11.064;2022-12-20T00:53:04;39.40;;;24.70;;
68744;SDS011;66104;45.456;11.064;2022-12-20T00:55:45;39.00;;;24.20;;
68744;SDS011;66104;45.456;11.064;2022-12-20T00:58:22;41.70;;;24.50;;
68744;SDS011;66104;45.456;11.064;2022-12-20T01:01:00;40.30;;;23.80;;
68744;SDS011;66104;45.456;11.064;2022-12-20T01:03:36;45.50;;;27.80;;
68744;SDS011;66104;45.456;11.064;2022-12-20T01:06:15;47.70;;;28.60;;
68744;SDS011;66104;45.456;11.064;2022-12-20T01:08:52;44.20;;;26.90;;
68744;SDS011;66104;45.456;11.064;2022-12-20T01:11:29;44.80;;;27.30;;
68744;SDS011;66104;45.456;11.064;2022-12-20T01:14:09;46.30;;;27.10;;
68744;SDS011;66104;45.456;11.064;2022-12-20T01:16:46;41.80;;;25.60;;
68744;SDS011;66104;45.456;11.064;2022-12-20T01:19:23;43.60;;;26.80;;
68744;SDS011;66104;45.456;11.064;2022-12-20T01:21:59;40.20;;;24.70;;
68744;SDS011;66104;45.456;11.064;2022-12-20T01:24:36;39.50;;;24.10;;
68744;SDS011;66104;45.456;11.064;2022-12-20T01:27:13;41.90;;;25.00;;
68744;SDS011;66104;45.456;11.064;2022-12-20T01:29:49;45.60;;;29.10;;
68744;SDS011;66104;45.456;11.064;2022-12-20T01:32:27;48.70;;;29.20;;
68744;SDS011;66104;45.456;11.064;2022-12-20T01:35:03;44.90;;;25.80;;
68744;SDS011;66104;45.456;11.064;2022-12-20T01:37:42;44.60;;;26.00;;
68744;SDS011;66104;45.456;11.064;2022-12-20T01:40:18;42.90;;;26.00;;
68744;SDS011;66104;45.456;11.064;2022-12-20T01:42:55;38.00;;;24.20;;
68744;SDS011;66104;45.456;11.064;2022-12-20T01:45:31;36.90;;;23.10;;
68744;SDS011;66104;45.456;11.064;2022-12-20T01:48:10;36.60;;;23.90;;
68744;SDS011;66104;45.456;11.064;2022-12-20T01:50:50;44.90;;;28.30;;
68744;SDS011;66104;45.456;11.064;2022-12-20T01:53:27;43.40;;;27.10;;
68744;SDS011;66104;45.456;11.064;2022-12-20T01:56:05;45.00;;;25.90;;
68744;SDS011;66104;45.456;11.064;2022-12-20T01:58:43;39.60;;;25.00;;
68744;SDS011;66104;45.456;11.064;2022-12-20T02:01:23;44.50;;;25.00;;
68744;SDS011;66104;45.456;11.064;2022-12-20T02:04:00;38.90;;;24.10;;
68744;SDS011;66104;45.456;11.064;2022-12-20T02:06:36;38.90;;;23.50;;
68744;SDS011;66104;45.456;11.064;2022-12-20T02:09:13;34.30;;;22.80;;
68744;SDS011;66104;45.456;11.064;2022-12-20T02:12:02;38.00;;;22.50;;
68744;SDS011;66104;45.456;11.064;2022-12-20T02:15:01;36.90;;;22.80;;
68744;SDS011;66104;45.456;11.064;2022-12-20T02:18:10;43.20;;;26.30;;
68744;SDS011;66104;45.456;11.064;2022-12-20T02:21:10;41.00;;;24.90;;
68744;SDS011;66104;45.456;11.064;2022-12-20T02:24:25;39.90;;;24.20;;
68744;SDS011;66104;45.456;11.064;2022-12-20T02:27:53;43.90;;;24.10;;
68744;SDS011;66104;45.456;11.064;2022-12-20T02:30:39;40.40;;;23.10;;
68744;SDS011;66104;45.456;11.064;2022-12-20T02:33:21;35.90;;;22.20;;
68744;SDS011;66104;45.456;11.064;2022-12-20T02:36:01;35.90;;;22.00;;
68744;SDS011;66104;45.456;11.064;2022-12-20T02:38:39;32.90;;;21.90;;
68744;SDS011;66104;45.456;11.064;2022-12-20T02:41:19;37.10;;;21.70;;
68744;SDS011;66104;45.456;11.064;2022-12-20T02:44:10;43.10;;;26.90;;
68744;SDS011;66104;45.456;11.064;2022-12-20T02:47:11;43.10;;;26.20;;
68744;SDS011;66104;45.456;11.064;2022-12-20T02:49:51;41.10;;;23.90;;
68744;SDS011;66104;45.456;11.064;2022-12-20T02:52:30;39.60;;;23.30;;
68744;SDS011;66104;45.456;11.064;2022-12-20T02:55:09;35.20;;;24.30;;
68744;SDS011;66104;45.456;11.064;2022-12-20T02:57:50;34.70;;;23.00;;
68744;SDS011;66104;45.456;11.064;2022-12-20T03:00:36;37.80;;;22.50;;
68744;SDS011;66104;45.456;11.064;2022-12-20T03:03:16;37.80;;;23.60;;
68744;SDS011;66104;45.456;11.064;2022-12-20T03:05:57;45.60;;;27.80;;
68744;SDS011;66104;45.456;11.064;2022-12-20T03:08:34;42.20;;;25.60;;
68744;SDS011;66104;45.456;11.064;2022-12-20T03:11:10;39.20;;;26.20;;
68744;SDS011;66104;45.456;11.064;2022-12-20T03:13:46;42.70;;;25.40;;
68744;SDS011;66104;45.456;11.064;2022-12-20T03:16:23;41.10;;;24.90;;
68744;SDS011;66104;45.456;11.064;2022-12-20T03:19:00;38.50;;;24.50;;
68744;SDS011;66104;45.456;11.064;2022-12-20T03:21:36;35.40;;;23.00;;
68744;SDS011;66104;45.456;11.064;2022-12-20T03:24:16;37.30;;;22.70;;
68744;SDS011;66104;45.456;11.064;2022-12-20T03:26:53;34.70;;;22.60;;
68744;SDS011;66104;45.456;11.064;2022-12-20T03:29:31;48.00;;;26.10;;
68744;SDS011;66104;45.456;11.064;2022-12-20T03:32:08;44.30;;;26.80;;
68744;SDS011;66104;45.456;11.064;2022-12-20T03:34:46;38.90;;;25.30;;
68744;SDS011;66104;45.456;11.064;2022-12-20T03:37:27;40.60;;;25.00;;
68744;SDS011;66104;45.456;11.064;2022-12-20T03:40:05;36.60;;;24.10;;
68744;SDS011;66104;45.456;11.064;2022-12-20T03:42:48;36.00;;;23.20;;
68744;SDS011;66104;45.456;11.064;2022-12-20T03:45:23;38.60;;;22.40;;
68744;SDS011;66104;45.456;11.064;2022-12-20T03:48:00;35.10;;;22.30;;
68744;SDS011;66104;45.456;11.064;2022-12-20T03:50:37;32.40;;;21.90;;
68744;SDS011;66104;45.456;11.064;2022-12-20T03:53:14;31.90;;;20.70;;
68744;SDS011;66104;45.456;11.064;2022-12-20T03:55:52;42.50;;;25.90;;
68744;SDS011;66104;45.456;11.064;2022-12-20T03:58:28;45.10;;;27.10;;
68744;SDS011;66104;45.456;11.064;2022-12-20T04:01:18;42.30;;;24.80;;
68744;SDS011;66104;45.456;11.064;2022-12-20T04:03:56;35.90;;;23.20;;
68744;SDS011;66104;45.456;11.064;2022-12-20T04:06:34;39.00;;;21.90;;
68744;SDS011;66104;45.456;11.064;2022-12-20T04:09:10;33.60;;;21.30;;
68744;SDS011;66104;45.456;11.064;2022-12-20T04:11:50;33.20;;;21.30;;
68744;SDS011;66104;45.456;11.064;2022-12-20T04:14:27;35.10;;;21.70;;
68744;SDS011;66104;45.456;11.064;2022-12-20T04:17:04;38.00;;;22.10;;
68744;SDS011;66104;45.456;11.064;2022-12-20T04:19:41;32.80;;;21.00;;
68744;SDS011;66104;45.456;11.064;2022-12-20T04:22:17;44.00;;;25.20;;
68744;SDS011;66104;45.456;11.064;2022-12-20T04:25:03;42.10;;;23.40;;
68744;SDS011;66104;45.456;11.064;2022-12-20T04:27:42;36.00;;;22.90;;
68744;SDS011;66104;45.456;11.064;2022-12-20T04:30:19;35.00;;;22.60;;
68744;SDS011;66104;45.456;11.064;2022-12-20T04:32:56;33.10;;;22.30;;
68744;SDS011;66104;45.456;11.064;2022-12-20T04:35:34;29.60;;;20.00;;
68744;SDS011;66104;45.456;11.064;2022-12-20T04:38:11;31.30;;;20.40;;
68744;SDS011;66104;45.456;11.064;2022-12-20T04:40:49;31.20;;;20.40;;
68744;SDS011;66104;45.456;11.064;2022-12-20T04:43:28;31.60;;;20.70;;
68744;SDS011;66104;45.456;11.064;2022-12-20T04:46:06;30.80;;;19.60;;
68744;SDS011;66104;45.456;11.064;2022-12-20T04:48:42;29.50;;;20.00;;
68744;SDS011;66104;45.456;11.064;2022-12-20T04:51:29;39.90;;;24.10;;
68744;SDS011;66104;45.456;11.064;2022-12-20T04:54:08;42.00;;;23.80;;
68744;SDS011;66104;45.456;11.064;2022-12-20T04:56:56;36.70;;;23.60;;
68744;SDS011;66104;45.456;11.064;2022-12-20T04:59:33;38.00;;;23.00;;
68744;SDS011;66104;45.456;11.064;2022-12-20T05:02:10;34.00;;;21.70;;
68744;SDS011;66104;45.456;11.064;2022-12-20T05:04:53;35.50;;;21.80;;
68744;SDS011;66104;45.456;11.064;2022-12-20T05:07:30;34.00;;;21.20;;
68744;SDS011;66104;45.456;11.064;2022-12-20T05:10:08;33.10;;;21.20;;
68744;SDS011;66104;45.456;11.064;2022-12-20T05:12:46;33.70;;;22.20;;
68744;SDS011;66104;45.456;11.064;2022-12-20T05:15:35;43.00;;;25.90;;
68744;SDS011;66104;45.456;11.064;2022-12-20T05:18:13;39.00;;;24.70;;
68744;SDS011;66104;45.456;11.064;2022-12-20T05:21:09;34.70;;;22.10;;
68744;SDS011;66104;45.456;11.064;2022-12-20T05:24:03;35.00;;;21.50;;
68744;SDS011;66104;45.456;11.064;2022-12-20T05:27:13;33.70;;;20.20;;
68744;SDS011;66104;45.456;11.064;2022-12-20T05:29:50;29.40;;;20.00;;
68744;SDS011;66104;45.456;11.064;2022-12-20T05:32:27;32.70;;;20.50;;
68744;SDS011;66104;45.456;11.064;2022-12-20T05:35:05;31.00;;;21.40;;
68744;SDS011;66104;45.456;11.064;2022-12-20T05:37:43;38.10;;;23.40;;
68744;SDS011;66104;45.456;11.064;2022-12-20T05:40:21;38.60;;;23.90;;
68744;SDS011;66104;45.456;11.064;2022-12-20T05:42:58;34.90;;;22.20;;
68744;SDS011;66104;45.456;11.064;2022-12-20T05:45:46;37.50;;;21.90;;
68744;SDS011;66104;45.456;11.064;2022-12-20T05:48:32;33.70;;;21.00;;
68744;SDS011;66104;45.456;11.064;2022-12-20T05:51:09;34.70;;;21.60;;
68744;SDS011;66104;45.456;11.064;2022-12-20T05:53:58;31.40;;;20.10;;
68744;SDS011;66104;45.456;11.064;2022-12-20T05:56:44;32.10;;;21.40;;
68744;SDS011;66104;45.456;11.064;2022-12-20T05:59:25;34.30;;;21.10;;
68744;SDS011;66104;45.456;11.064;2022-12-20T06:02:03;39.20;;;24.20;;
68744;SDS011;66104;45.456;11.064;2022-12-20T06:04:41;39.90;;;25.70;;
68744;SDS011;66104;45.456;11.064;2022-12-20T06:07:24;36.50;;;23.00;;
68744;SDS011;66104;45.456;11.064;2022-12-20T06:10:03;37.50;;;23.60;;
68744;SDS011;66104;45.456;11.064;2022-12-20T06:12:56;34.10;;;22.30;;
68744;SDS011;66104;45.456;11.064;2022-12-20T06:15:33;35.00;;;22.50;;
68744;SDS011;66104;45.456;11.064;2022-12-20T06:18:10;34.10;;;22.60;;
68744;SDS011;66104;45.456;11.064;2022-12-20T06:20:50;36.60;;;21.60;;
68744;SDS011;66104;45.456;11.064;2022-12-20T06:23:27;32.90;;;22.00;;
68744;SDS011;66104;45.456;11.064;2022-12-20T06:26:13;40.80;;;25.40;;
68744;SDS011;66104;45.456;11.064;2022-12-20T06:28:51;42.30;;;26.10;;
68744;SDS011;66104;45.456;11.064;2022-12-20T06:31:42;38.70;;;24.10;;
68744;SDS011;66104;45.456;11.064;2022-12-20T06:34:19;42.90;;;24.20;;
68744;SDS011;66104;45.456;11.064;2022-12-20T06:36:56;39.10;;;23.10;;
68744;SDS011;66104;45.456;11.064;2022-12-20T06:39:35;37.20;;;21.90;;
68744;SDS011;66104;45.456;11.064;2022-12-20T06:42:12;38.00;;;21.90;;
68744;SDS011;66104;45.456;11.064;2022-12-20T06:44:49;36.90;;;22.90;;
68744;SDS011;66104;45.456;11.064;2022-12-20T06:47:25;35.30;;;22.80;;
68744;SDS011;66104;45.456;11.064;2022-12-20T06:50:05;47.80;;;28.60;;
68744;SDS011;66104;45.456;11.064;2022-12-20T06:52:44;46.20;;;26.80;;
68744;SDS011;66104;45.456;11.064;2022-12-20T06:55:20;38.50;;;25.10;;
68744;SDS011;66104;45.456;11.064;2022-12-20T06:57:57;40.30;;;25.20;;
68744;SDS011;66104;45.456;11.064;2022-12-20T07:00:33;40.60;;;25.50;;
68744;SDS011;66104;45.456;11.064;2022-12-20T07:03:09;41.60;;;24.50;;
68744;SDS011;66104;45.456;11.064;2022-12-20T07:05:50;37.60;;;23.80;;
68744;SDS011;66104;45.456;11.064;2022-12-20T07:08:26;38.80;;;24.60;;
68744;SDS011;66104;45.456;11.064;2022-12-20T07:11:06;43.40;;;24.20;;
68744;SDS011;66104;45.456;11.064;2022-12-20T07:13:42;54.20;;;31.30;;
68744;SDS011;66104;45.456;11.064;2022-12-20T07:16:18;51.30;;;29.80;;
68744;SDS011;66104;45.456;11.064;2022-12-20T07:18:56;45.20;;;26.90;;
68744;SDS011;66104;45.456;11.064;2022-12-20T07:21:33;65.10;;;30.70;;
68744;SDS011;66104;45.456;11.064;2022-12-20T07:24:12;67.20;;;31.40;;
68744;SDS011;66104;45.456;11.064;2022-12-20T07:26:48;55.70;;;27.70;;
68744;SDS011;66104;45.456;11.064;2022-12-20T07:29:25;53.20;;;28.90;;
68744;SDS011;66104;45.456;11.064;2022-12-20T07:32:02;49.10;;;27.30;;
68744;SDS011;66104;45.456;11.064;2022-12-20T07:34:39;55.70;;;31.40;;
68744;SDS011;66104;45.456;11.064;2022-12-20T07:37:16;52.60;;;30.10;;
68744;SDS011;66104;45.456;11.064;2022-12-20T07:39:53;40.20;;;27.50;;
68744;SDS011;66104;45.456;11.064;2022-12-20T07:42:29;44.70;;;26.90;;
68744;SDS011;66104;45.456;11.064;2022-12-20T07:45:12;41.70;;;26.30;;
68744;SDS011;66104;45.456;11.064;2022-12-20T07:47:50;44.90;;;25.40;;
68744;SDS011;66104;45.456;11.064;2022-12-20T07:50:29;37.40;;;24.20;;
68744;SDS011;66104;45.456;11.064;2022-12-20T07:53:07;38.40;;;23.30;;
68744;SDS011;66104;45.456;11.064;2022-12-20T07:55:44;40.60;;;25.30;;
68744;SDS011;66104;45.456;11.064;2022-12-20T07:58:20;51.30;;;30.50;;
68744;SDS011;66104;45.456;11.064;2022-12-20T08:00:57;45.50;;;28.00;;
68744;SDS011;66104;45.456;11.064;2022-12-20T08:03:38;47.90;;;26.70;;
68744;SDS011;66104;45.456;11.064;2022-12-20T08:06:18;42.90;;;26.90;;
68744;SDS011;66104;45.456;11.064;2022-12-20T08:08:57;43.00;;;27.50;;
68744;SDS011;66104;45.456;11.064;2022-12-20T08:11:37;50.40;;;27.40;;
68744;SDS011;66104;45.456;11.064;2022-12-20T08:14:17;40.40;;;25.70;;
68744;SDS011;66104;45.456;11.064;2022-12-20T08:16:54;45.10;;;26.90;;
68744;SDS011;66104;45.456;11.064;2022-12-20T08:19:31;43.70;;;26.40;;
68744;SDS011;66104;45.456;11.064;2022-12-20T08:22:08;46.40;;;26.20;;
68744;SDS011;66104;45.456;11.064;2022-12-20T08:24:45;53.60;;;30.50;;
68744;SDS011;66104;45.456;11.064;2022-12-20T08:27:21;52.20;;;29.80;;
68744;SDS011;66104;45.456;11.064;2022-12-20T08:29:58;49.60;;;28.20;;
68744;SDS011;66104;45.456;11.064;2022-12-20T08:32:35;46.90;;;27.00;;
68744;SDS011;66104;45.456;11.064;2022-12-20T08:35:11;49.70;;;26.90;;
68744;SDS011;66104;45.456;11.064;2022-12-20T08:37:48;51.60;;;27.80;;
68744;SDS011;66104;45.456;11.064;2022-12-20T08:40:26;45.60;;;25.70;;
68744;SDS011;66104;45.456;11.064;2022-12-20T08:43:02;41.00;;;25.00;;
68744;SDS011;66104;45.456;11.064;2022-12-20T08:45:40;45.00;;;26.70;;
68744;SDS011;66104;45.456;11.064;2022-12-20T08:48:16;40.70;;;23.80;;
68744;SDS011;66104;45.456;11.064;2022-12-20T08:50:58;53.80;;;31.40;;
68744;SDS011;66104;45.456;11.064;2022-12-20T08:53:37;55.40;;;31.10;;
68744;SDS011;66104;45.456;11.064;2022-12-20T08:56:15;53.10;;;28.10;;
68744;SDS011;66104;45.456;11.064;2022-12-20T08:58:52;55.50;;;30.30;;
68744;SDS011;66104;45.456;11.064;2022-12-20T09:01:29;49.80;;;29.70;;
68744;SDS011;66104;45.456;11.064;2022-12-20T09:04:05;48.70;;;29.20;;
68744;SDS011;66104;45.456;11.064;2022-12-20T09:06:42;45.50;;;26.90;;
68744;SDS011;66104;45.456;11.064;2022-12-20T09:09:17;47.50;;;28.90;;
68744;SDS011;66104;45.456;11.064;2022-12-20T09:11:54;57.10;;;33.30;;
68744;SDS011;66104;45.456;11.064;2022-12-20T09:14:30;53.90;;;31.90;;
68744;SDS011;66104;45.456;11.064;2022-12-20T09:17:06;52.40;;;31.00;;
68744;SDS011;66104;45.456;11.064;2022-12-20T09:19:43;51.80;;;30.70;;
68744;SDS011;66104;45.456;11.064;2022-12-20T09:22:20;54.50;;;31.30;;
68744;SDS011;66104;45.456;11.064;2022-12-20T09:24:56;48.60;;;28.20;;
68744;SDS011;66104;45.456;11.064;2022-12-20T09:27:32;43.60;;;24.90;;
68744;SDS011;66104;45.456;11.064;2022-12-20T09:30:14;47.60;;;28.60;;
68744;SDS011;66104;45.456;11.064;2022-12-20T09:32:52;46.60;;;26.20;;
68744;SDS011;66104;45.456;11.064;2022-12-20T09:35:46;54.50;;;30.70;;
68744;SDS011;66104;45.456;11.064;2022-12-20T09:38:22;57.70;;;31.30;;
68744;SDS011;66104;45.456;11.064;2022-12-20T09:41:00;61.40;;;30.00;;
68744;SDS011;66104;45.456;11.064;2022-12-20T09:43:39;54.00;;;29.40;;
68744;SDS011;66104;45.456;11.064;2022-12-20T09:46:16;50.60;;;30.30;;
68744;SDS011;66104;45.456;11.064;2022-12-20T09:48:53;50.50;;;28.40;;
68744;SDS011;66104;45.456;11.064;2022-12-20T09:51:46;44.50;;;27.20;;
68744;SDS011;66104;45.456;11.064;2022-12-20T09:54:48;43.30;;;24.90;;
68744;SDS011;66104;45.456;11.064;2022-12-20T09:57:42;43.70;;;26.70;;
68744;SDS011;66104;45.456;11.064;2022-12-20T10:00:27;54.60;;;31.20;;
68744;SDS011;66104;45.456;11.064;2022-12-20T10:03:12;52.90;;;30.70;;
68744;SDS011;66104;45.456;11.064;2022-12-20T10:05:55;47.40;;;29.70;;
68744;SDS011;66104;45.456;11.064;2022-12-20T10:08:47;46.60;;;29.10;;
68744;SDS011;66104;45.456;11.064;2022-12-20T10:11:43;44.20;;;27.60;;
68744;SDS011;66104;45.456;11.064;2022-12-20T10:14:49;41.50;;;25.20;;
68744;SDS011;66104;45.456;11.064;2022-12-20T10:17:48;47.30;;;27.10;;
68744;SDS011;66104;45.456;11.064;2022-12-20T10:23:36;49.70;;;27.70;;
68744;SDS011;66104;45.456;11.064;2022-12-20T10:26:16;43.60;;;25.70;;
68744;SDS011;66104;45.456;11.064;2022-12-20T10:28:55;55.70;;;30.80;;
68744;SDS011;66104;45.456;11.064;2022-12-20T10:31:31;56.40;;;32.60;;
68744;SDS011;66104;45.456;11.064;2022-12-20T10:34:08;60.10;;;30.40;;
68744;SDS011;66104;45.456;11.064;2022-12-20T10:36:45;55.00;;;29.50;;
68744;SDS011;66104;45.456;11.064;2022-12-20T10:39:49;51.10;;;29.50;;
68744;SDS011;66104;45.456;11.064;2022-12-20T10:42:38;47.40;;;27.40;;
68744;SDS011;66104;45.456;11.064;2022-12-20T10:45:31;51.10;;;28.90;;
68744;SDS011;66104;45.456;11.064;2022-12-20T10:51:17;47.20;;;27.60;;
68744;SDS011;66104;45.456;11.064;2022-12-20T10:53:56;51.40;;;28.70;;
68744;SDS011;66104;45.456;11.064;2022-12-20T10:56:36;50.70;;;28.60;;
68744;SDS011;66104;45.456;11.064;2022-12-20T10:59:30;55.80;;;30.60;;
68744;SDS011;66104;45.456;11.064;2022-12-20T11:02:26;68.90;;;35.10;;
68744;SDS011;66104;45.456;11.064;2022-12-20T11:05:24;66.00;;;33.20;;
68744;SDS011;66104;45.456;11.064;2022-12-20T11:08:06;62.60;;;31.70;;
68744;SDS011;66104;45.456;11.064;2022-12-20T11:11:15;62.40;;;31.70;;
68744;SDS011;66104;45.456;11.064;2022-12-20T11:13:54;56.20;;;30.10;;
68744;SDS011;66104;45.456;11.064;2022-12-20T11:16:49;60.50;;;29.70;;
68744;SDS011;66104;45.456;11.064;2022-12-20T11:19:49;53.00;;;29.70;;
68744;SDS011;66104;45.456;11.064;2022-12-20T11:22:42;55.60;;;30.80;;
68744;SDS011;66104;45.456;11.064;2022-12-20T11:25:42;61.30;;;29.40;;
68744;SDS011;66104;45.456;11.064;2022-12-20T11:28:42;53.70;;;28.40;;
68744;SDS011;66104;45.456;11.064;2022-12-20T11:31:46;54.40;;;29.90;;
68744;SDS011;66104;45.456;11.064;2022-12-20T11:34:38;66.70;;;34.10;;
68744;SDS011;66104;45.456;11.064;2022-12-20T11:37:23;75.80;;;37.20;;
68744;SDS011;66104;45.456;11.064;2022-12-20T11:40:17;70.10;;;33.50;;
68744;SDS011;66104;45.456;11.064;2022-12-20T11:43:21;68.90;;;33.80;;
68744;SDS011;66104;45.456;11.064;2022-12-20T11:46:42;64.50;;;30.40;;
68744;SDS011;66104;45.456;11.064;2022-12-20T11:49:45;66.30;;;31.50;;
68744;SDS011;66104;45.456;11.064;2022-12-20T11:52:40;63.50;;;30.90;;
68744;SDS011;66104;45.456;11.064;2022-12-20T11:55:23;66.20;;;30.10;;
68744;SDS011;66104;45.456;11.064;2022-12-20T11:58:08;76.40;;;34.10;;
68744;SDS011;66104;45.456;11.064;2022-12-20T12:00:55;92.50;;;41.20;;
68744;SDS011;66104;45.456;11.064;2022-12-20T12:03:38;89.50;;;39.10;;
68744;SDS011;66104;45.456;11.064;2022-12-20T12:06:22;84.60;;;36.40;;
68744;SDS011;66104;45.456;11.064;2022-12-20T12:09:11;82.50;;;35.60;;
68744;SDS011;66104;45.456;11.064;2022-12-20T12:11:59;76.20;;;33.60;;
68744;SDS011;66104;45.456;11.064;2022-12-20T12:14:47;68.20;;;31.60;;
68744;SDS011;66104;45.456;11.064;2022-12-20T12:17:33;76.30;;;32.30;;
68744;SDS011;66104;45.456;11.064;2022-12-20T12:20:24;62.90;;;29.10;;
68744;SDS011;66104;45.456;11.064;2022-12-20T12:23:09;69.30;;;30.40;;
68744;SDS011;66104;45.456;11.064;2022-12-20T12:25:51;58.90;;;30.80;;
68744;SDS011;66104;45.456;11.064;2022-12-20T12:28:27;62.00;;;29.00;;
68744;SDS011;66104;45.456;11.064;2022-12-20T12:31:06;73.50;;;33.90;;
68744;SDS011;66104;45.456;11.064;2022-12-20T12:33:52;75.80;;;32.30;;
68744;SDS011;66104;45.456;11.064;2022-12-20T12:36:47;69.40;;;31.70;;
68744;SDS011;66104;45.456;11.064;2022-12-20T12:40:15;70.70;;;30.60;;
68744;SDS011;66104;45.456;11.064;2022-12-20T12:43:22;63.60;;;28.50;;
68744;SDS011;66104;45.456;11.064;2022-12-20T12:46:18;70.70;;;29.40;;
68744;SDS011;66104;45.456;11.064;2022-12-20T12:49:02;61.90;;;30.00;;
68744;SDS011;66104;45.456;11.064;2022-12-20T12:51:48;70.60;;;29.00;;
68744;SDS011;66104;45.456;11.064;2022-12-20T12:54:29;60.00;;;27.00;;
68744;SDS011;66104;45.456;11.064;2022-12-20T12:57:13;61.00;;;29.40;;
68744;SDS011;66104;45.456;11.064;2022-12-20T12:59:50;68.60;;;31.30;;
68744;SDS011;66104;45.456;11.064;2022-12-20T13:02:47;79.40;;;33.80;;
68744;SDS011;66104;45.456;11.064;2022-12-20T13:05:38;68.00;;;32.40;;
68744;SDS011;66104;45.456;11.064;2022-12-20T13:08:18;78.40;;;33.20;;
68744;SDS011;66104;45.456;11.064;2022-12-20T13:11:32;72.00;;;31.80;;
68744;SDS011;66104;45.456;11.064;2022-12-20T13:17:49;64.80;;;27.70;;
68744;SDS011;66104;45.456;11.064;2022-12-20T13:20:28;60.20;;;26.90;;
68744;SDS011;66104;45.456;11.064;2022-12-20T13:23:14;64.70;;;27.70;;
68744;SDS011;66104;45.456;11.064;2022-12-20T13:25:56;58.50;;;24.80;;
68744;SDS011;66104;45.456;11.064;2022-12-20T13:28:48;57.40;;;26.70;;
68744;SDS011;66104;45.456;11.064;2022-12-20T13:31:34;55.70;;;25.10;;
68744;SDS011;66104;45.456;11.064;2022-12-20T13:34:37;56.60;;;27.20;;
68744;SDS011;66104;45.456;11.064;2022-12-20T13:40:34;62.10;;;28.80;;
68744;SDS011;66104;45.456;11.064;2022-12-20T13:43:22;62.10;;;27.80;;
68744;SDS011;66104;45.456;11.064;2022-12-20T13:46:13;57.40;;;27.20;;
68744;SDS011;66104;45.456;11.064;2022-12-20T13:48:56;64.50;;;29.00;;
68744;SDS011;66104;45.456;11.064;2022-12-20T13:51:34;43.10;;;21.00;;
68744;SDS011;66104;45.456;11.064;2022-12-20T13:54:16;46.60;;;22.10;;
68744;SDS011;66104;45.456;11.064;2022-12-20T13:56:57;42.40;;;20.30;;
68744;SDS011;66104;45.456;11.064;2022-12-20T13:59:39;27.80;;;14.50;;
68744;SDS011;66104;45.456;11.064;2022-12-20T14:02:22;24.30;;;13.90;;
68744;SDS011;66104;45.456;11.064;2022-12-20T14:05:03;28.30;;;14.50;;
68744;SDS011;66104;45.456;11.064;2022-12-20T14:07:50;27.30;;;15.20;;
68744;SDS011;66104;45.456;11.064;2022-12-20T14:10:32;31.10;;;16.10;;
68744;SDS011;66104;45.456;11.064;2022-12-20T14:13:21;34.20;;;16.80;;
68744;SDS011;66104;45.456;11.064;2022-12-20T14:16:09;29.60;;;16.20;;
68744;SDS011;66104;45.456;11.064;2022-12-20T14:18:53;32.20;;;16.30;;
68744;SDS011;66104;45.456;11.064;2022-12-20T14:21:37;33.20;;;13.70;;
68744;SDS011;66104;45.456;11.064;2022-12-20T14:24:18;26.60;;;14.90;;
68744;SDS011;66104;45.456;11.064;2022-12-20T14:26:57;27.70;;;16.50;;
68744;SDS011;66104;45.456;11.064;2022-12-20T14:29:34;25.30;;;15.60;;
68744;SDS011;66104;45.456;11.064;2022-12-20T14:32:18;30.50;;;16.00;;
68744;SDS011;66104;45.456;11.064;2022-12-20T14:34:55;38.20;;;19.50;;
68744;SDS011;66104;45.456;11.064;2022-12-20T14:37:34;60.30;;;26.80;;
68744;SDS011;66104;45.456;11.064;2022-12-20T14:40:21;58.70;;;27.70;;
68744;SDS011;66104;45.456;11.064;2022-12-20T14:42:58;62.50;;;29.40;;
68744;SDS011;66104;45.456;11.064;2022-12-20T14:46:14;60.10;;;25.40;;
68744;SDS011;66104;45.456;11.064;2022-12-20T14:49:07;53.20;;;24.50;;
68744;SDS011;66104;45.456;11.064;2022-12-20T14:52:03;46.50;;;21.50;;
68744;SDS011;66104;45.456;11.064;2022-12-20T14:54:47;52.60;;;23.50;;
68744;SDS011;66104;45.456;11.064;2022-12-20T14:57:46;43.70;;;22.60;;
68744;SDS011;66104;45.456;11.064;2022-12-20T15:00:25;46.80;;;22.40;;
68744;SDS011;66104;45.456;11.064;2022-12-20T15:03:09;47.20;;;22.80;;
68744;SDS011;66104;45.456;11.064;2022-12-20T15:05:53;49.00;;;23.10;;
68744;SDS011;66104;45.456;11.064;2022-12-20T15:08:31;51.60;;;24.40;;
68744;SDS011;66104;45.456;11.064;2022-12-20T15:11:19;40.70;;;21.00;;
68744;SDS011;66104;45.456;11.064;2022-12-20T15:13:57;51.40;;;24.00;;
68744;SDS011;66104;45.456;11.064;2022-12-20T15:16:34;54.30;;;25.30;;
68744;SDS011;66104;45.456;11.064;2022-12-20T15:19:18;52.20;;;26.30;;
68744;SDS011;66104;45.456;11.064;2022-12-20T15:21:55;74.10;;;33.00;;
68744;SDS011;66104;45.456;11.064;2022-12-20T15:24:31;51.20;;;26.00;;
68744;SDS011;66104;45.456;11.064;2022-12-20T15:27:13;48.50;;;24.90;;
68744;SDS011;66104;45.456;11.064;2022-12-20T15:29:50;48.90;;;23.20;;
68744;SDS011;66104;45.456;11.064;2022-12-20T15:32:28;47.60;;;23.00;;
68744;SDS011;66104;45.456;11.064;2022-12-20T15:35:04;50.60;;;22.90;;
68744;SDS011;66104;45.456;11.064;2022-12-20T15:37:45;50.30;;;23.60;;
68744;SDS011;66104;45.456;11.064;2022-12-20T15:40:21;53.80;;;25.30;;
68744;SDS011;66104;45.456;11.064;2022-12-20T15:42:57;57.60;;;26.60;;
68744;SDS011;66104;45.456;11.064;2022-12-20T15:45:34;56.50;;;24.90;;
68744;SDS011;66104;45.456;11.064;2022-12-20T15:48:16;51.40;;;25.10;;